createdAt,value
2018-01-13T05:00:43.838Z,0
2018-01-13T05:01:09.378Z,0
2018-01-13T05:01:34.823Z,0
2018-01-13T05:02:00.319Z,0
2018-01-13T05:02:25.869Z,0
2018-01-13T05:02:51.334Z,0
2018-01-13T05:03:16.804Z,0
2018-01-13T05:03:42.273Z,0
2018-01-13T05:04:07.788Z,0
2018-01-13T05:04:33.285Z,0
2018-01-13T05:04:58.777Z,0
2018-01-13T05:06:02.382Z,0
2018-01-13T05:06:27.876Z,0
2018-01-13T05:06:53.358Z,0
2018-01-13T05:07:18.880Z,0
2018-01-13T05:07:44.393Z,0
2018-01-13T05:08:09.883Z,0
2018-01-13T05:09:13.477Z,0
2018-01-13T05:09:38.965Z,0
2018-01-13T05:10:04.474Z,0
2018-01-13T05:10:29.936Z,0
2018-01-13T05:10:55.420Z,0
2018-01-13T05:11:20.890Z,0
2018-01-13T05:11:46.385Z,0
2018-01-13T05:12:11.849Z,0
2018-01-13T05:12:37.353Z,0
2018-01-13T05:13:02.823Z,0
2018-01-13T05:13:28.326Z,0
2018-01-13T05:13:53.790Z,0
2018-01-13T05:14:19.315Z,0
2018-01-13T05:14:44.836Z,0
2018-01-13T05:15:10.289Z,0
2018-01-13T05:15:35.760Z,0
2018-01-13T05:16:01.227Z,0
2018-01-13T05:16:26.736Z,0
2018-01-13T05:16:52.243Z,0
2018-01-13T05:17:17.770Z,0
2018-01-13T05:17:43.294Z,0
2018-01-13T05:18:08.773Z,0
2018-01-13T05:18:34.252Z,0
2018-01-13T05:19:58.424Z,0
2018-01-13T05:20:23.919Z,0
2018-01-13T05:20:49.410Z,0
2018-01-13T05:21:58.130Z,0
2018-01-13T05:22:23.606Z,0
2018-01-13T05:22:49.109Z,0
2018-01-13T05:23:14.589Z,0
2018-01-13T05:23:40.083Z,0
2018-01-13T05:24:05.577Z,0
2018-01-13T05:24:31.077Z,0
2018-01-13T05:24:56.571Z,0
2018-01-13T05:25:22.067Z,0
2018-01-13T05:25:47.539Z,0
2018-01-13T05:26:13.025Z,0
2018-01-13T05:26:38.470Z,0
2018-01-13T05:27:41.570Z,0
2018-01-13T05:28:07.076Z,0
2018-01-13T05:28:32.578Z,0
2018-01-13T05:28:58.066Z,0
2018-01-13T05:29:23.544Z,0
2018-01-13T05:29:49.028Z,0
2018-01-13T05:30:14.529Z,0
2018-01-13T05:30:40.023Z,0
2018-01-13T05:31:05.490Z,0
2018-01-13T05:31:30.986Z,0
2018-01-13T05:31:56.475Z,0
2018-01-13T05:32:21.989Z,0
2018-01-13T05:33:35.763Z,0
2018-01-13T05:34:01.243Z,0
2018-01-13T05:34:26.744Z,0
2018-01-13T05:34:52.237Z,0
2018-01-13T05:35:17.725Z,0
2018-01-13T05:35:43.214Z,0
2018-01-13T05:36:56.481Z,0
2018-01-13T05:37:21.973Z,0
2018-01-13T05:37:47.467Z,0
2018-01-13T05:38:12.946Z,0
2018-01-13T05:38:38.510Z,0
2018-01-13T05:39:04.005Z,0
2018-01-13T05:39:29.499Z,0
2018-01-13T05:39:55.065Z,0
2018-01-13T05:41:08.443Z,0
2018-01-13T05:41:33.941Z,0
2018-01-13T05:41:59.421Z,0
2018-01-13T05:42:24.939Z,0
2018-01-13T05:42:50.417Z,0
2018-01-13T05:43:15.932Z,0
2018-01-13T05:43:41.437Z,0
2018-01-13T05:44:06.957Z,0
2018-01-13T05:44:32.443Z,0
2018-01-13T05:44:57.911Z,0
2018-01-13T05:45:23.415Z,0
2018-01-13T05:45:48.978Z,0
2018-01-13T05:46:14.467Z,0
2018-01-13T05:46:39.937Z,0
2018-01-13T05:47:05.434Z,0
2018-01-13T05:47:30.942Z,0
2018-01-13T05:47:56.475Z,0
2018-01-13T05:48:21.984Z,0
2018-01-13T05:48:47.489Z,0
2018-01-13T05:49:12.967Z,0
2018-01-13T05:49:38.486Z,0
2018-01-13T05:50:03.987Z,0
2018-01-13T05:50:29.479Z,0
2018-01-13T05:50:54.977Z,0
2018-01-13T05:51:20.462Z,0
2018-01-13T05:51:45.944Z,0
2018-01-13T05:52:11.445Z,0
2018-01-13T05:52:36.944Z,0
2018-01-13T05:53:02.398Z,0
2018-01-13T05:53:27.893Z,0
2018-01-13T05:53:53.360Z,0
2018-01-13T05:54:18.891Z,0
2018-01-13T05:54:44.452Z,0
2018-01-13T05:55:09.981Z,0
2018-01-13T05:55:35.454Z,0
2018-01-13T05:56:00.953Z,0
2018-01-13T05:56:26.427Z,0
2018-01-13T05:56:51.899Z,0
2018-01-13T05:57:17.389Z,0
2018-01-13T05:57:42.853Z,0
2018-01-13T05:58:08.336Z,0
2018-01-13T05:58:33.849Z,0
2018-01-13T05:58:59.317Z,0
2018-01-13T05:59:24.796Z,0
2018-01-13T05:59:50.251Z,0
2018-01-13T06:00:15.715Z,0
2018-01-13T06:00:41.169Z,0
2018-01-13T06:01:06.672Z,0
2018-01-13T06:01:32.145Z,0
2018-01-13T06:01:57.628Z,0
2018-01-13T06:02:23.105Z,0
2018-01-13T06:02:48.562Z,0
2018-01-13T06:03:14.054Z,0
2018-01-13T06:03:39.548Z,0
2018-01-13T06:04:05.041Z,0
2018-01-13T06:04:30.490Z,0
2018-01-13T06:04:55.970Z,0
2018-01-13T06:05:21.467Z,0
2018-01-13T06:05:46.992Z,0
2018-01-13T06:06:12.480Z,0
2018-01-13T06:06:37.986Z,0
2018-01-13T06:08:02.126Z,0
2018-01-13T06:08:27.590Z,0
2018-01-13T06:08:53.083Z,0
2018-01-13T06:09:18.528Z,0
2018-01-13T06:09:43.988Z,0
2018-01-13T06:10:09.531Z,0
2018-01-13T06:10:35.031Z,0
2018-01-13T06:11:00.508Z,0
2018-01-13T06:11:25.982Z,0
2018-01-13T06:11:51.481Z,0
2018-01-13T06:12:16.964Z,0
2018-01-13T06:12:42.458Z,0
2018-01-13T06:13:07.968Z,0
2018-01-13T06:13:33.451Z,0
2018-01-13T06:13:58.937Z,0
2018-01-13T06:14:24.416Z,0
2018-01-13T06:14:49.914Z,0
2018-01-13T06:15:15.454Z,0
2018-01-13T06:15:40.992Z,0
2018-01-13T06:16:06.482Z,0
2018-01-13T06:17:25.553Z,0
2018-01-13T06:17:51.060Z,0
2018-01-13T06:18:16.560Z,0
2018-01-13T06:18:42.053Z,0
2018-01-13T06:19:07.519Z,0
2018-01-13T06:19:33.015Z,0
2018-01-13T06:19:58.506Z,0
2018-01-13T06:20:24.061Z,0
2018-01-13T06:20:49.544Z,0
2018-01-13T06:21:15.053Z,0
2018-01-13T06:21:40.529Z,0
2018-01-13T06:22:06.000Z,0
2018-01-13T06:22:31.468Z,0
2018-01-13T06:23:49.876Z,0
2018-01-13T06:24:15.364Z,0
2018-01-13T06:24:40.875Z,0
2018-01-13T06:25:06.332Z,0
2018-01-13T06:25:31.852Z,0
2018-01-13T06:25:57.340Z,0
2018-01-13T06:26:22.784Z,0
2018-01-13T06:26:48.284Z,0
2018-01-13T06:28:01.587Z,0
2018-01-13T06:28:27.081Z,0
2018-01-13T06:28:52.563Z,0
2018-01-13T06:29:18.040Z,0
2018-01-13T06:29:43.534Z,0
2018-01-13T06:30:09.077Z,0
2018-01-13T06:30:34.529Z,0
2018-01-13T06:31:00.063Z,0
2018-01-13T06:31:25.573Z,0
2018-01-13T06:31:51.059Z,0
2018-01-13T06:32:16.578Z,0
2018-01-13T06:32:42.061Z,0
2018-01-13T06:33:07.533Z,0
2018-01-13T06:33:33.030Z,0
2018-01-13T06:33:58.511Z,0
2018-01-13T06:34:24.038Z,0
2018-01-13T06:34:49.511Z,0
2018-01-13T06:35:15.018Z,0
2018-01-13T06:35:40.519Z,0
2018-01-13T06:36:06.101Z,0
2018-01-13T06:36:31.535Z,0
2018-01-13T06:36:57.049Z,0
2018-01-13T06:37:22.600Z,0
2018-01-13T06:37:48.068Z,0
2018-01-13T06:38:13.550Z,0
2018-01-13T06:38:39.050Z,0
2018-01-13T06:39:04.555Z,0
2018-01-13T06:39:30.040Z,0
2018-01-13T06:39:55.573Z,0
2018-01-13T06:40:21.034Z,0
2018-01-13T06:40:46.574Z,0
2018-01-13T06:41:12.070Z,0
2018-01-13T06:41:37.564Z,0
2018-01-13T06:42:03.020Z,0
2018-01-13T06:42:28.597Z,0
2018-01-13T06:42:54.093Z,0
2018-01-13T06:43:19.566Z,0
2018-01-13T06:43:45.093Z,0
2018-01-13T06:44:10.587Z,0
2018-01-13T06:44:36.082Z,0
2018-01-13T06:45:01.599Z,0
2018-01-13T06:45:27.082Z,0
2018-01-13T06:45:52.594Z,0
2018-01-13T06:46:18.093Z,0
2018-01-13T06:46:43.616Z,0
2018-01-13T06:47:09.197Z,0
2018-01-13T06:47:34.645Z,0
2018-01-13T06:48:00.182Z,0
2018-01-13T06:48:25.664Z,0
2018-01-13T06:48:51.179Z,0
2018-01-13T06:49:16.643Z,0
2018-01-13T06:49:42.122Z,0
2018-01-13T06:50:07.632Z,0
2018-01-13T06:50:33.149Z,0
2018-01-13T06:50:58.629Z,0
2018-01-13T06:51:24.122Z,0
2018-01-13T06:51:49.618Z,0
2018-01-13T06:52:15.095Z,0
2018-01-13T06:52:40.570Z,0
2018-01-13T06:53:06.068Z,0
2018-01-13T06:53:31.566Z,0
2018-01-13T06:54:50.734Z,0
2018-01-13T06:55:16.210Z,0
2018-01-13T06:55:41.679Z,0
2018-01-13T06:56:07.133Z,0
2018-01-13T06:56:32.644Z,0
2018-01-13T06:57:40.843Z,4
2018-01-13T06:58:06.337Z,4
2018-01-13T06:58:31.821Z,4
2018-01-13T06:58:57.309Z,4
2018-01-13T06:59:22.813Z,0
2018-01-13T06:59:48.314Z,0
2018-01-13T07:01:11.863Z,4
2018-01-13T07:01:37.368Z,4
2018-01-13T07:02:02.859Z,4
2018-01-13T07:02:28.344Z,4
2018-01-13T07:02:53.814Z,4
2018-01-13T07:03:19.349Z,4
2018-01-13T07:03:44.851Z,4
2018-01-13T07:04:10.329Z,4
2018-01-13T07:04:35.781Z,4
2018-01-13T07:05:01.307Z,4
2018-01-13T07:05:26.798Z,4
2018-01-13T07:06:45.220Z,4
2018-01-13T07:07:10.709Z,4
2018-01-13T07:07:36.209Z,8
2018-01-13T07:08:01.713Z,8
2018-01-13T07:08:27.225Z,8
2018-01-13T07:08:52.674Z,8
2018-01-13T07:09:18.145Z,8
2018-01-13T07:09:43.649Z,8
2018-01-13T07:11:02.542Z,12
2018-01-13T07:11:28.054Z,12
2018-01-13T07:11:53.537Z,12
2018-01-13T07:12:19.072Z,12
2018-01-13T07:12:44.570Z,12
2018-01-13T07:13:10.037Z,12
2018-01-13T07:13:35.583Z,16
2018-01-13T07:14:01.083Z,16
2018-01-13T07:14:26.589Z,20
2018-01-13T07:14:52.155Z,20
2018-01-13T07:15:17.886Z,20
2018-01-13T07:15:43.434Z,24
2018-01-13T07:16:08.873Z,20
2018-01-13T07:16:34.574Z,24
2018-01-13T07:17:00.088Z,24
2018-01-13T07:17:25.587Z,28
2018-01-13T07:17:51.082Z,28
2018-01-13T07:18:16.566Z,28
2018-01-13T07:18:42.094Z,28
2018-01-13T07:19:07.586Z,32
2018-01-13T07:19:33.034Z,32
2018-01-13T07:19:58.516Z,32
2018-01-13T07:20:23.984Z,36
2018-01-13T07:20:49.490Z,36
2018-01-13T07:21:14.949Z,36
2018-01-13T07:21:40.480Z,40
2018-01-13T07:22:05.941Z,40
2018-01-13T07:22:31.448Z,44
2018-01-13T07:22:56.943Z,48
2018-01-13T07:23:22.421Z,48
2018-01-13T07:23:47.946Z,52
2018-01-13T07:24:13.466Z,52
2018-01-13T07:24:38.941Z,56
2018-01-13T07:25:04.462Z,60
2018-01-13T07:25:29.959Z,64
2018-01-13T07:25:55.408Z,64
2018-01-13T07:26:20.857Z,68
2018-01-13T07:26:46.373Z,68
2018-01-13T07:27:11.890Z,76
2018-01-13T07:27:37.377Z,76
2018-01-13T07:28:02.875Z,76
2018-01-13T07:28:28.317Z,84
2018-01-13T07:28:53.807Z,84
2018-01-13T07:29:19.263Z,88
2018-01-13T07:29:44.756Z,92
2018-01-13T07:30:10.206Z,92
2018-01-13T07:30:35.711Z,100
2018-01-13T07:31:01.197Z,100
2018-01-13T07:31:26.690Z,100
2018-01-13T07:31:52.214Z,104
2018-01-13T07:32:17.715Z,108
2018-01-13T07:32:43.212Z,112
2018-01-13T07:33:08.720Z,116
2018-01-13T07:33:34.196Z,116
2018-01-13T07:34:53.264Z,128
2018-01-13T07:35:18.947Z,128
2018-01-13T07:35:44.457Z,136
2018-01-13T07:36:10.007Z,140
2018-01-13T07:36:35.495Z,144
2018-01-13T07:37:01.042Z,144
2018-01-13T07:37:26.516Z,152
2018-01-13T07:37:52.061Z,156
2018-01-13T07:38:17.574Z,164
2018-01-13T07:38:43.173Z,164
2018-01-13T07:39:08.690Z,172
2018-01-13T07:39:34.214Z,176
2018-01-13T07:39:59.715Z,180
2018-01-13T07:40:25.211Z,188
2018-01-13T07:40:50.768Z,196
2018-01-13T07:41:16.388Z,204
2018-01-13T07:41:41.842Z,208
2018-01-13T07:42:07.349Z,216
2018-01-13T07:42:32.823Z,224
2018-01-13T07:42:58.321Z,228
2018-01-13T07:43:23.820Z,236
2018-01-13T07:43:49.314Z,244
2018-01-13T07:44:14.800Z,252
2018-01-13T07:44:40.288Z,256
2018-01-13T07:45:05.783Z,260
2018-01-13T07:45:31.339Z,268
2018-01-13T07:45:56.936Z,272
2018-01-13T07:46:22.437Z,280
2018-01-13T07:46:47.900Z,280
2018-01-13T07:48:06.822Z,296
2018-01-13T07:49:26.730Z,316
2018-01-13T07:49:52.224Z,320
2018-01-13T07:50:17.712Z,324
2018-01-13T07:50:43.209Z,328
2018-01-13T07:51:08.660Z,332
2018-01-13T07:51:34.136Z,336
2018-01-13T07:51:59.675Z,340
2018-01-13T07:52:25.170Z,344
2018-01-13T07:52:50.688Z,352
2018-01-13T07:53:16.176Z,360
2018-01-13T07:53:41.624Z,368
2018-01-13T07:54:07.171Z,376
2018-01-13T07:54:32.603Z,388
2018-01-13T07:54:58.261Z,396
2018-01-13T07:55:23.617Z,404
2018-01-13T07:55:49.031Z,416
2018-01-13T07:56:14.534Z,428
2018-01-13T07:56:39.992Z,440
2018-01-13T07:57:05.470Z,452
2018-01-13T07:57:30.978Z,460
2018-01-13T07:57:56.466Z,472
2018-01-13T07:58:21.968Z,484
2018-01-13T07:58:47.415Z,496
2018-01-13T07:59:12.963Z,504
2018-01-13T07:59:38.439Z,512
2018-01-13T08:00:03.910Z,520
2018-01-13T08:00:29.365Z,532
2018-01-13T08:01:33.123Z,560
2018-01-13T08:01:58.616Z,576
2018-01-13T08:02:24.124Z,592
2018-01-13T08:02:49.643Z,608
2018-01-13T08:03:15.114Z,620
2018-01-13T08:03:40.604Z,636
2018-01-13T08:04:06.057Z,652
2018-01-13T08:04:31.547Z,668
2018-01-13T08:04:57.003Z,680
2018-01-13T08:05:22.503Z,696
2018-01-13T08:05:47.986Z,708
2018-01-13T08:06:13.498Z,720
2018-01-13T08:06:39.077Z,740
2018-01-13T08:07:04.932Z,756
2018-01-13T08:07:31.341Z,768
2018-01-13T08:07:57.364Z,788
2018-01-13T08:08:23.455Z,804
2018-01-13T08:08:49.580Z,824
2018-01-13T08:09:15.112Z,840
2018-01-13T08:09:40.810Z,856
2018-01-13T08:10:50.703Z,892
2018-01-13T08:11:16.222Z,908
2018-01-13T08:11:42.141Z,920
2018-01-13T08:12:07.783Z,928
2018-01-13T08:12:33.775Z,936
2018-01-13T08:12:59.356Z,944
2018-01-13T08:13:24.869Z,956
2018-01-13T08:13:50.343Z,968
2018-01-13T08:14:15.830Z,976
2018-01-13T08:14:41.326Z,988
2018-01-13T08:15:44.919Z,1016
2018-01-13T08:16:10.416Z,1024
2018-01-13T08:16:35.894Z,1028
2018-01-13T08:17:01.417Z,1036
2018-01-13T08:17:26.912Z,1044
2018-01-13T08:17:52.420Z,1048
2018-01-13T08:18:17.931Z,1060
2018-01-13T08:18:43.467Z,1068
2018-01-13T08:19:08.957Z,1080
2018-01-13T08:19:34.420Z,1100
2018-01-13T08:19:59.911Z,1120
2018-01-13T08:20:25.364Z,1144
2018-01-13T08:21:44.273Z,1220
2018-01-13T08:22:09.812Z,1240
2018-01-13T08:22:35.257Z,1260
2018-01-13T08:23:00.758Z,1284
2018-01-13T08:23:26.253Z,1300
2018-01-13T08:23:51.744Z,1320
2018-01-13T08:24:17.233Z,1336
2018-01-13T08:24:42.763Z,1352
2018-01-13T08:25:08.246Z,1368
2018-01-13T08:25:33.734Z,1384
2018-01-13T08:25:59.240Z,1392
2018-01-13T08:26:24.726Z,1404
2018-01-13T08:26:50.286Z,1416
2018-01-13T08:27:15.761Z,1432
2018-01-13T08:27:41.254Z,1444
2018-01-13T08:28:06.736Z,1452
2018-01-13T08:28:32.208Z,1468
2018-01-13T08:29:35.827Z,1516
2018-01-13T08:30:01.318Z,1536
2018-01-13T08:30:26.801Z,1552
2018-01-13T08:30:52.292Z,1564
2018-01-13T08:31:17.792Z,1576
2018-01-13T08:31:43.276Z,1584
2018-01-13T08:32:08.789Z,1596
2018-01-13T08:32:34.286Z,1616
2018-01-13T08:32:59.811Z,1640
2018-01-13T08:33:25.296Z,1660
2018-01-13T08:33:50.792Z,1664
2018-01-13T08:34:16.272Z,1668
2018-01-13T08:34:41.790Z,1668
2018-01-13T08:35:07.279Z,1672
2018-01-13T08:36:10.895Z,1668
2018-01-13T08:36:36.392Z,1652
2018-01-13T08:37:01.857Z,1644
2018-01-13T08:37:27.343Z,1648
2018-01-13T08:37:52.834Z,1656
2018-01-13T08:38:18.301Z,1672
2018-01-13T08:38:43.788Z,1660
2018-01-13T08:39:52.497Z,1676
2018-01-13T08:40:17.961Z,1700
2018-01-13T08:40:43.442Z,1712
2018-01-13T08:41:08.970Z,1724
2018-01-13T08:41:34.445Z,1732
2018-01-13T08:42:00.049Z,1728
2018-01-13T08:42:25.550Z,1724
2018-01-13T08:42:51.120Z,1716
2018-01-13T08:43:16.638Z,1712
2018-01-13T08:44:20.698Z,1680
2018-01-13T08:44:46.181Z,1680
2018-01-13T08:45:11.649Z,1680
2018-01-13T08:45:37.131Z,1672
2018-01-13T08:46:02.640Z,1648
2018-01-13T08:46:28.153Z,1632
2018-01-13T08:46:53.678Z,1620
2018-01-13T08:47:19.325Z,1624
2018-01-13T08:47:44.784Z,1640
2018-01-13T08:48:10.275Z,1680
2018-01-13T08:48:35.804Z,1724
2018-01-13T08:49:59.921Z,1872
2018-01-13T08:50:25.392Z,1916
2018-01-13T08:50:50.888Z,1948
2018-01-13T08:51:16.452Z,1976
2018-01-13T08:51:41.983Z,1996
2018-01-13T08:52:07.480Z,1992
2018-01-13T08:52:32.965Z,1968
2018-01-13T08:52:58.415Z,1920
2018-01-13T08:53:23.899Z,1884
2018-01-13T08:53:49.393Z,1888
2018-01-13T08:54:52.992Z,1964
2018-01-13T08:55:18.478Z,1992
2018-01-13T08:55:43.979Z,2004
2018-01-13T08:57:02.894Z,1972
2018-01-13T08:57:28.408Z,1984
2018-01-13T08:57:53.863Z,1976
2018-01-13T08:58:19.345Z,1960
2018-01-13T08:58:44.809Z,1960
2018-01-13T08:59:10.324Z,1988
2018-01-13T08:59:35.822Z,2020
2018-01-13T09:00:01.498Z,2036
2018-01-13T09:00:26.889Z,2040
2018-01-13T09:00:52.420Z,2044
2018-01-13T09:01:17.979Z,2076
2018-01-13T09:01:43.477Z,2120
2018-01-13T09:02:08.971Z,2148
2018-01-13T09:02:34.466Z,2192
2018-01-13T09:02:59.926Z,2236
2018-01-13T09:03:25.398Z,2264
2018-01-13T09:03:50.986Z,2276
2018-01-13T09:04:16.483Z,2268
2018-01-13T09:04:42.058Z,2260
2018-01-13T09:05:07.573Z,2276
2018-01-13T09:05:33.087Z,2288
2018-01-13T09:05:58.604Z,2284
2018-01-13T09:06:24.096Z,2288
2018-01-13T09:06:49.590Z,2296
2018-01-13T09:07:15.090Z,2288
2018-01-13T09:07:40.597Z,2264
2018-01-13T09:08:06.079Z,2244
2018-01-13T09:08:31.564Z,2260
2018-01-13T09:08:57.042Z,2284
2018-01-13T09:09:22.546Z,2292
2018-01-13T09:09:48.041Z,2292
2018-01-13T09:10:51.712Z,2252
2018-01-13T09:11:17.184Z,2232
2018-01-13T09:11:42.687Z,2220
2018-01-13T09:12:08.162Z,2212
2018-01-13T09:12:33.674Z,2212
2018-01-13T09:12:59.165Z,2212
2018-01-13T09:13:24.637Z,2228
2018-01-13T09:13:50.123Z,2232
2018-01-13T09:14:15.619Z,2232
2018-01-13T09:14:41.198Z,2232
2018-01-13T09:15:06.713Z,2228
2018-01-13T09:15:32.167Z,2228
2018-01-13T09:15:57.652Z,2240
2018-01-13T09:16:23.181Z,2240
2018-01-13T09:16:48.654Z,2212
2018-01-13T09:17:14.154Z,2188
2018-01-13T09:17:39.619Z,2180
2018-01-13T09:18:05.171Z,2172
2018-01-13T09:18:30.692Z,2168
2018-01-13T09:18:56.174Z,2156
2018-01-13T09:19:21.689Z,2152
2018-01-13T09:19:47.163Z,2164
2018-01-13T09:20:12.642Z,2180
2018-01-13T09:20:38.173Z,2212
2018-01-13T09:21:03.620Z,2244
2018-01-13T09:21:29.087Z,2288
2018-01-13T09:21:54.584Z,2312
2018-01-13T09:22:20.069Z,2332
2018-01-13T09:22:45.569Z,2352
2018-01-13T09:23:11.067Z,2376
2018-01-13T09:23:36.569Z,2392
2018-01-13T09:24:02.062Z,2396
2018-01-13T09:24:27.575Z,2392
2018-01-13T09:24:53.058Z,2388
2018-01-13T09:25:18.551Z,2372
2018-01-13T09:25:44.035Z,2364
2018-01-13T09:27:03.322Z,2316
2018-01-13T09:27:28.813Z,2308
2018-01-13T09:27:54.328Z,2312
2018-01-13T09:28:19.859Z,2304
2018-01-13T09:28:45.329Z,2304
2018-01-13T09:30:04.291Z,2280
2018-01-13T09:30:29.813Z,2264
2018-01-13T09:30:55.279Z,2264
2018-01-13T09:31:20.801Z,2256
2018-01-13T09:31:46.247Z,2248
2018-01-13T09:32:11.741Z,2240
2018-01-13T09:32:37.237Z,2228
2018-01-13T09:33:02.738Z,2216
2018-01-13T09:33:28.242Z,2208
2018-01-13T09:33:53.734Z,2200
2018-01-13T09:35:17.751Z,2212
2018-01-13T09:35:43.233Z,2220
2018-01-13T09:36:08.720Z,2220
2018-01-13T09:36:34.216Z,2220
2018-01-13T09:36:59.692Z,2232
2018-01-13T09:37:25.220Z,2244
2018-01-13T09:37:50.707Z,2244
2018-01-13T09:38:16.181Z,2252
2018-01-13T09:38:41.676Z,2280
2018-01-13T09:40:00.561Z,2388
2018-01-13T09:40:26.030Z,2428
2018-01-13T09:40:51.537Z,2476
2018-01-13T09:41:17.051Z,2524
2018-01-13T09:41:42.528Z,2568
2018-01-13T09:42:08.039Z,2620
2018-01-13T09:42:33.518Z,2664
2018-01-13T09:42:59.019Z,2720
2018-01-13T09:43:24.495Z,2764
2018-01-13T09:43:49.972Z,2788
2018-01-13T09:44:15.429Z,2812
2018-01-13T09:44:40.925Z,2832
2018-01-13T09:45:06.492Z,2848
2018-01-13T09:45:32.016Z,2872
2018-01-13T09:45:57.506Z,2888
2018-01-13T09:46:23.012Z,2892
2018-01-13T09:46:48.490Z,2928
2018-01-13T09:47:13.965Z,3004
2018-01-13T09:47:39.466Z,3072
2018-01-13T09:48:04.933Z,3116
2018-01-13T09:48:30.446Z,3184
2018-01-13T09:48:56.002Z,3280
2018-01-13T09:49:21.458Z,3364
2018-01-13T09:49:47.065Z,3428
2018-01-13T09:50:12.565Z,3456
2018-01-13T09:50:38.088Z,3480
2018-01-13T09:51:03.579Z,3524
2018-01-13T09:51:29.116Z,3560
2018-01-13T09:51:54.640Z,3560
2018-01-13T09:52:20.183Z,3528
2018-01-13T09:52:45.595Z,3480
2018-01-13T09:53:11.075Z,3424
2018-01-13T09:53:36.575Z,3388
2018-01-13T09:54:02.041Z,3396
2018-01-13T09:54:27.628Z,3432
2018-01-13T09:54:53.278Z,3472
2018-01-13T09:55:18.821Z,3504
2018-01-13T09:55:44.297Z,3516
2018-01-13T09:56:09.903Z,3464
2018-01-13T09:56:35.419Z,3416
2018-01-13T09:57:49.249Z,3396
2018-01-13T09:58:14.721Z,3408
2018-01-13T09:58:40.196Z,3420
2018-01-13T09:59:05.738Z,3392
2018-01-13T09:59:31.207Z,3400
2018-01-13T09:59:56.726Z,3416
2018-01-13T10:00:22.196Z,3512
2018-01-13T10:00:47.713Z,3520
2018-01-13T10:01:13.183Z,3464
2018-01-13T10:01:38.614Z,3400
2018-01-13T10:02:04.219Z,3364
2018-01-13T10:03:23.118Z,3444
2018-01-13T10:03:48.675Z,3396
2018-01-13T10:04:14.139Z,3376
2018-01-13T10:04:39.725Z,3368
2018-01-13T10:05:05.151Z,3472
2018-01-13T10:06:23.577Z,3464
2018-01-13T10:06:49.060Z,3396
2018-01-13T10:07:14.577Z,3348
2018-01-13T10:07:40.052Z,3348
2018-01-13T10:08:05.536Z,3412
2018-01-13T10:08:31.077Z,3540
2018-01-13T10:08:56.531Z,3552
2018-01-13T10:09:22.030Z,3440
2018-01-13T10:09:47.519Z,3340
2018-01-13T10:10:13.049Z,3296
2018-01-13T10:10:38.538Z,3292
2018-01-13T10:11:04.044Z,3300
2018-01-13T10:11:29.635Z,3320
2018-01-13T10:11:55.118Z,3280
2018-01-13T10:12:20.650Z,3284
2018-01-13T10:12:46.130Z,3300
2018-01-13T10:13:11.651Z,3332
2018-01-13T10:13:37.124Z,3360
2018-01-13T10:14:02.598Z,3392
2018-01-13T10:14:28.098Z,3388
2018-01-13T10:14:53.698Z,3408
2018-01-13T10:15:19.187Z,3452
2018-01-13T10:15:44.890Z,3492
2018-01-13T10:16:10.393Z,3480
2018-01-13T10:16:35.895Z,3596
2018-01-13T10:17:01.408Z,3676
2018-01-13T10:17:26.896Z,3676
2018-01-13T10:17:52.409Z,3624
2018-01-13T10:18:17.912Z,3460
2018-01-13T10:18:43.492Z,3428
2018-01-13T10:19:08.973Z,3436
2018-01-13T10:19:34.556Z,3396
2018-01-13T10:19:59.976Z,3332
2018-01-13T10:20:25.521Z,3304
2018-01-13T10:20:51.002Z,3292
2018-01-13T10:21:16.469Z,3304
2018-01-13T10:21:41.951Z,3336
2018-01-13T10:22:07.423Z,3408
2018-01-13T10:22:32.940Z,3448
2018-01-13T10:22:58.423Z,3492
2018-01-13T10:23:23.930Z,3500
2018-01-13T10:23:49.469Z,3372
2018-01-13T10:24:14.970Z,3256
2018-01-13T10:24:40.475Z,3248
2018-01-13T10:25:05.953Z,3288
2018-01-13T10:25:31.461Z,3344
2018-01-13T10:25:57.024Z,3416
2018-01-13T10:26:22.530Z,3416
2018-01-13T10:26:48.041Z,3332
2018-01-13T10:27:13.520Z,3152
2018-01-13T10:27:39.005Z,3080
2018-01-13T10:28:04.476Z,3172
2018-01-13T10:28:29.950Z,3280
2018-01-13T10:28:55.424Z,3356
2018-01-13T10:29:20.879Z,3392
2018-01-13T10:29:46.399Z,3372
2018-01-13T10:30:11.910Z,3320
2018-01-13T10:30:37.393Z,3284
2018-01-13T10:31:02.872Z,3284
2018-01-13T10:31:28.423Z,3348
2018-01-13T10:31:53.887Z,3420
2018-01-13T10:32:19.408Z,3548
2018-01-13T10:32:44.879Z,3652
2018-01-13T10:33:10.376Z,3656
2018-01-13T10:33:35.873Z,3592
2018-01-13T10:34:01.320Z,3596
2018-01-13T10:34:26.813Z,3564
2018-01-13T10:34:52.312Z,3564
2018-01-13T10:35:17.818Z,3620
2018-01-13T10:35:43.315Z,3672
2018-01-13T10:36:08.826Z,3664
2018-01-13T10:36:34.306Z,3668
2018-01-13T10:36:59.795Z,3684
2018-01-13T10:37:25.260Z,3728
2018-01-13T10:37:50.811Z,3652
2018-01-13T10:38:16.298Z,3632
2018-01-13T10:39:40.338Z,3572
2018-01-13T10:40:05.837Z,3532
2018-01-13T10:40:31.310Z,3552
2018-01-13T10:40:56.804Z,3548
2018-01-13T10:41:22.314Z,3464
2018-01-13T10:42:41.191Z,3340
2018-01-13T10:43:06.693Z,3356
2018-01-13T10:43:32.134Z,3392
2018-01-13T10:43:57.637Z,3504
2018-01-13T10:44:23.135Z,3644
2018-01-13T10:44:48.636Z,3636
2018-01-13T10:45:14.128Z,3612
2018-01-13T10:45:39.635Z,3600
2018-01-13T10:46:05.064Z,3588
2018-01-13T10:46:30.586Z,3552
2018-01-13T10:46:56.103Z,3528
2018-01-13T10:47:21.590Z,3544
2018-01-13T10:48:30.295Z,3656
2018-01-13T10:48:55.785Z,3632
2018-01-13T10:49:21.278Z,3632
2018-01-13T10:49:46.754Z,3672
2018-01-13T10:50:12.278Z,3748
2018-01-13T10:50:37.759Z,3800
2018-01-13T10:52:01.829Z,3688
2018-01-13T10:52:27.340Z,3684
2018-01-13T10:52:52.801Z,3716
2018-01-13T10:53:18.286Z,3784
2018-01-13T10:53:43.907Z,3836
2018-01-13T10:54:09.519Z,3836
2018-01-13T10:54:35.054Z,3812
2018-01-13T10:55:00.528Z,3828
2018-01-13T10:55:26.020Z,3824
2018-01-13T10:55:51.534Z,3764
2018-01-13T10:56:17.013Z,3640
2018-01-13T10:57:35.957Z,3648
2018-01-13T10:58:01.454Z,3632
2018-01-13T10:58:26.918Z,3608
2018-01-13T10:58:52.423Z,3600
2018-01-13T10:59:17.854Z,3564
2018-01-13T10:59:43.345Z,3496
2018-01-13T11:00:08.818Z,3492
2018-01-13T11:00:34.408Z,3524
2018-01-13T11:00:59.822Z,3568
2018-01-13T11:01:25.295Z,3592
2018-01-13T11:01:50.842Z,3608
2018-01-13T11:02:16.323Z,3700
2018-01-13T11:02:41.795Z,3740
2018-01-13T11:03:07.304Z,3652
2018-01-13T11:03:32.767Z,3520
2018-01-13T11:03:58.238Z,3456
2018-01-13T11:04:23.692Z,3472
2018-01-13T11:05:32.452Z,3600
2018-01-13T11:05:57.918Z,3588
2018-01-13T11:06:23.408Z,3532
2018-01-13T11:06:48.894Z,3540
2018-01-13T11:07:14.415Z,3636
2018-01-13T11:07:39.925Z,3708
2018-01-13T11:08:05.412Z,3736
2018-01-13T11:08:30.899Z,3700
2018-01-13T11:08:56.577Z,3620
2018-01-13T11:09:22.084Z,3476
2018-01-13T11:09:47.587Z,3308
2018-01-13T11:10:13.067Z,3236
2018-01-13T11:10:38.571Z,3348
2018-01-13T11:11:52.370Z,3524
2018-01-13T11:12:17.865Z,3484
2018-01-13T11:12:43.384Z,3464
2018-01-13T11:13:08.879Z,3528
2018-01-13T11:13:34.331Z,3600
2018-01-13T11:13:59.828Z,3552
2018-01-13T11:14:25.316Z,3492
2018-01-13T11:14:50.825Z,3484
2018-01-13T11:15:16.277Z,3488
2018-01-13T11:15:41.725Z,3492
2018-01-13T11:16:07.170Z,3468
2018-01-13T11:17:10.767Z,3296
2018-01-13T11:17:36.268Z,3204
2018-01-13T11:18:01.763Z,3200
2018-01-13T11:18:27.278Z,3284
2018-01-13T11:18:52.750Z,3384
2018-01-13T11:19:18.238Z,3356
2018-01-13T11:19:43.748Z,3256
2018-01-13T11:20:09.232Z,3144
2018-01-13T11:20:34.711Z,3100
2018-01-13T11:21:00.186Z,3104
2018-01-13T11:21:25.663Z,3132
2018-01-13T11:21:51.132Z,3224
2018-01-13T11:22:16.621Z,3348
2018-01-13T11:22:42.082Z,3328
2018-01-13T11:23:07.530Z,3248
2018-01-13T11:23:32.990Z,3220
2018-01-13T11:23:58.459Z,3284
2018-01-13T11:24:23.943Z,3320
2018-01-13T11:24:49.512Z,3300
2018-01-13T11:25:15.031Z,3288
2018-01-13T11:25:40.462Z,3220
2018-01-13T11:26:05.958Z,3052
2018-01-13T11:26:31.421Z,2940
2018-01-13T11:26:56.916Z,2964
2018-01-13T11:27:22.353Z,3072
2018-01-13T11:27:47.883Z,3132
2018-01-13T11:28:13.327Z,3080
2018-01-13T11:28:38.871Z,2972
2018-01-13T11:29:04.382Z,2888
2018-01-13T11:29:29.882Z,2892
2018-01-13T11:29:55.320Z,2936
2018-01-13T11:30:20.870Z,2948
2018-01-13T11:30:46.320Z,2932
2018-01-13T11:31:11.752Z,2872
2018-01-13T11:31:37.214Z,2788
2018-01-13T11:32:02.720Z,2700
2018-01-13T11:32:28.223Z,2660